Time;durP1;ratioP1;P1;durP2;ratioP2;P2;SDS_P1;SDS_P2;PMS_P1;PMS_P2;Temp;Humidity;BMP_temperature;BMP_pressure;BME280_temperature;BME280_humidity;BME280_pressure;Samples;Min_cycle;Max_cycle;Signal;HPM_P1;HPM_P2
2023/12/07 00:00:28;;;;;;;25.80;16.60;;;0.90;99.90;;;;;;6211639;23;20031;-71
2023/12/07 00:02:53;;;;;;;22.00;13.43;;;1.00;99.90;;;;;;6212194;23;20338;-72
2023/12/07 00:05:19;;;;;;;22.40;15.73;;;1.00;99.90;;;;;;6211894;23;19997;-72
2023/12/07 00:07:44;;;;;;;16.70;12.60;;;0.90;99.90;;;;;;6212045;23;20430;-72
2023/12/07 00:10:10;;;;;;;17.80;12.23;;;0.90;99.90;;;;;;6212395;23;20150;-72
2023/12/07 00:12:35;;;;;;;19.40;15.67;;;0.90;99.90;;;;;;6212738;23;20005;-72
2023/12/07 00:15:02;;;;;;;23.73;16.23;;;0.90;99.90;;;;;;6212374;23;20011;-74
2023/12/07 00:17:28;;;;;;;17.60;14.03;;;0.90;99.90;;;;;;6210085;23;20025;-73
2023/12/07 00:19:53;;;;;;;22.13;16.33;;;0.80;99.90;;;;;;6213373;23;20046;-73
2023/12/07 00:22:20;;;;;;;24.57;17.03;;;0.80;99.90;;;;;;6213233;23;20013;-75
2023/12/07 00:24:45;;;;;;;21.47;15.17;;;0.80;99.90;;;;;;6213755;23;19997;-76
2023/12/07 00:27:11;;;;;;;23.63;15.83;;;0.80;99.90;;;;;;6186859;23;20009;-76
2023/12/07 00:29:40;;;;;;;24.43;17.03;;;0.80;99.90;;;;;;6213426;23;20005;-76
2023/12/07 00:32:06;;;;;;;24.90;17.10;;;0.80;99.90;;;;;;6186432;23;20419;-76
2023/12/07 00:34:31;;;;;;;20.47;14.13;;;0.80;99.90;;;;;;6213362;23;20008;-76
2023/12/07 00:36:57;;;;;;;18.57;13.40;;;0.80;99.90;;;;;;6213507;23;20013;-75
2023/12/07 00:39:22;;;;;;;21.93;17.03;;;0.80;99.90;;;;;;6186345;23;19997;-75
2023/12/07 00:41:48;;;;;;;22.57;16.43;;;0.80;99.90;;;;;;6213289;23;20004;-76
2023/12/07 00:44:14;;;;;;;21.93;15.67;;;0.80;99.90;;;;;;6213203;23;20000;-76
2023/12/07 00:46:40;;;;;;;18.43;14.47;;;0.80;99.90;;;;;;6186406;23;20005;-76
2023/12/07 00:49:05;;;;;;;17.97;11.77;;;0.80;99.90;;;;;;6212869;23;20326;-76
2023/12/07 00:51:31;;;;;;;16.33;13.27;;;0.80;99.90;;;;;;6213865;23;19996;-76
2023/12/07 00:53:58;;;;;;;19.60;12.80;;;0.80;99.90;;;;;;6186562;23;20005;-76
2023/12/07 00:56:23;;;;;;;21.00;14.57;;;0.70;99.90;;;;;;6213449;23;20004;-76
2023/12/07 00:58:49;;;;;;;15.73;12.03;;;0.70;99.90;;;;;;6213667;23;20013;-76
2023/12/07 01:01:15;;;;;;;20.50;14.27;;;0.70;99.90;;;;;;6213287;23;20007;-76
2023/12/07 01:03:40;;;;;;;22.53;15.77;;;0.70;99.90;;;;;;6215514;23;20005;-76
2023/12/07 01:06:07;;;;;;;26.80;16.33;;;0.70;99.90;;;;;;6215065;23;20672;-76
2023/12/07 01:08:32;;;;;;;31.87;17.13;;;0.70;99.90;;;;;;6215137;23;20009;-76
2023/12/07 01:10:58;;;;;;;32.93;16.13;;;0.70;99.90;;;;;;6215088;23;20035;-76
2023/12/07 01:13:23;;;;;;;28.43;16.50;;;0.70;99.90;;;;;;6188279;23;20004;-76
2023/12/07 01:15:49;;;;;;;39.77;18.67;;;0.70;99.90;;;;;;6213434;23;20025;-71
2023/12/07 01:18:15;;;;;;;48.10;19.93;;;0.70;99.90;;;;;;6213292;23;20039;-71
2023/12/07 01:20:41;;;;;;;46.87;17.80;;;0.70;99.90;;;;;;6214009;23;20055;-71
2023/12/07 01:23:08;;;;;;;43.50;15.13;;;0.80;99.90;;;;;;6213473;23;20000;-71
2023/12/07 01:25:34;;;;;;;70.27;21.87;;;0.80;99.90;;;;;;6214025;23;19996;-71
2023/12/07 01:28:00;;;;;;;83.80;22.33;;;0.80;99.90;;;;;;6213588;23;20058;-71
2023/12/07 01:30:25;;;;;;;70.93;21.83;;;0.80;99.90;;;;;;6213771;23;20009;-71
2023/12/07 01:32:51;;;;;;;90.63;21.30;;;0.80;99.90;;;;;;6213954;23;20011;-71
2023/12/07 01:35:17;;;;;;;42.53;17.20;;;0.80;99.90;;;;;;6214464;23;20390;-71
2023/12/07 01:37:43;;;;;;;76.10;20.53;;;0.70;99.90;;;;;;6213742;23;20008;-71
2023/12/07 01:40:11;;;;;;;43.37;17.57;;;0.70;99.90;;;;;;6213736;23;20032;-71
2023/12/07 01:42:38;;;;;;;65.70;20.67;;;0.80;99.90;;;;;;6214008;23;20024;-71
2023/12/07 01:45:05;;;;;;;56.43;19.97;;;0.80;99.90;;;;;;6213431;23;20028;-71
2023/12/07 01:47:31;;;;;;;79.53;22.87;;;0.80;99.90;;;;;;6213769;23;20016;-71
2023/12/07 01:49:57;;;;;;;35.30;17.77;;;0.80;99.90;;;;;;6213742;23;20004;-71
2023/12/07 01:52:25;;;;;;;49.97;17.90;;;0.90;99.90;;;;;;6213475;23;20004;-71
2023/12/07 01:54:51;;;;;;;40.20;15.67;;;0.80;99.90;;;;;;6213949;23;20055;-71
2023/12/07 01:57:17;;;;;;;53.93;18.57;;;0.90;99.90;;;;;;6213423;23;20009;-72
2023/12/07 01:59:42;;;;;;;53.70;18.17;;;0.90;99.90;;;;;;6213543;23;20028;-71
2023/12/07 02:02:08;;;;;;;59.90;19.77;;;1.00;99.90;;;;;;6213135;23;20012;-71
2023/12/07 02:04:35;;;;;;;97.93;23.70;;;1.00;99.90;;;;;;6215813;23;20076;-71
2023/12/07 02:07:02;;;;;;;89.27;22.33;;;1.00;99.90;;;;;;6213335;23;20334;-71
2023/12/07 02:09:28;;;;;;;136.87;27.67;;;1.00;99.90;;;;;;6213886;23;20008;-71
2023/12/07 02:11:53;;;;;;;65.70;21.07;;;1.00;99.90;;;;;;6213346;23;20055;-71
2023/12/07 02:14:19;;;;;;;61.10;20.70;;;1.00;99.90;;;;;;6213950;23;20005;-71
2023/12/07 02:17:10;;;;;;;86.27;22.63;;;0.90;99.90;;;;;;6212820;23;20442;-71
2023/12/07 02:19:51;;;;;;;68.43;21.97;;;1.00;99.90;;;;;;6213831;23;20036;-71
2023/12/07 02:22:26;;;;;;;127.93;29.40;;;1.00;99.90;;;;;;6213343;23;20043;-71
2023/12/07 02:25:07;;;;;;;88.80;22.00;;;1.00;99.90;;;;;;6212963;23;19997;-71
2023/12/07 02:27:34;;;;;;;70.67;21.17;;;1.00;99.90;;;;;;6212594;23;20072;-71
2023/12/07 02:30:00;;;;;;;68.53;19.13;;;1.00;99.90;;;;;;6212973;23;20103;-71
2023/12/07 02:32:25;;;;;;;72.07;22.27;;;1.00;99.90;;;;;;6213547;23;20516;-71
2023/12/07 02:34:51;;;;;;;62.47;22.47;;;1.10;99.90;;;;;;6212465;23;20012;-71
2023/12/07 02:37:18;;;;;;;37.40;17.63;;;1.10;99.90;;;;;;6213665;23;20446;-71
2023/12/07 02:39:45;;;;;;;58.83;18.57;;;1.10;99.90;;;;;;6213049;23;20007;-71
2023/12/07 02:42:13;;;;;;;31.17;14.77;;;1.10;99.90;;;;;;6213125;23;20035;-71
2023/12/07 02:44:39;;;;;;;51.57;18.53;;;1.10;99.90;;;;;;6186498;23;20001;-72
2023/12/07 02:47:05;;;;;;;34.67;15.67;;;1.00;99.90;;;;;;6213201;23;20009;-71
2023/12/07 02:49:31;;;;;;;40.63;17.50;;;1.10;99.90;;;;;;6213161;23;20004;-71
2023/12/07 02:51:56;;;;;;;42.97;15.33;;;1.10;99.90;;;;;;6186871;23;20335;-71
2023/12/07 02:54:22;;;;;;;95.90;23.20;;;1.10;99.90;;;;;;6212767;23;20004;-71
2023/12/07 02:56:48;;;;;;;45.87;17.17;;;1.10;99.90;;;;;;6212685;23;20005;-71
2023/12/07 02:59:14;;;;;;;54.60;22.23;;;1.20;99.90;;;;;;6213290;23;20005;-71
2023/12/07 03:01:39;;;;;;;56.23;22.00;;;1.20;99.90;;;;;;6213187;23;20011;-71
2023/12/07 03:04:05;;;;;;;39.97;18.87;;;1.20;99.90;;;;;;6212866;23;19996;-72
2023/12/07 03:06:30;;;;;;;34.33;16.10;;;1.20;99.90;;;;;;6213069;23;20001;-72
2023/12/07 03:08:56;;;;;;;34.03;19.50;;;1.30;99.90;;;;;;6212932;23;20005;-72
2023/12/07 03:11:21;;;;;;;28.53;18.83;;;1.30;99.90;;;;;;6212430;23;20005;-72
2023/12/07 03:13:47;;;;;;;36.53;18.27;;;1.30;99.90;;;;;;6212949;23;20004;-72
2023/12/07 03:16:13;;;;;;;27.13;17.77;;;1.40;99.90;;;;;;6213017;23;20442;-71
2023/12/07 03:18:38;;;;;;;24.43;15.83;;;1.40;99.90;;;;;;6212780;23;20032;-71
2023/12/07 03:21:04;;;;;;;23.53;15.50;;;1.40;99.90;;;;;;6212852;23;20001;-71
2023/12/07 03:23:29;;;;;;;23.40;16.00;;;1.40;99.90;;;;;;6212727;23;20054;-71
2023/12/07 03:25:55;;;;;;;23.17;16.03;;;1.40;99.90;;;;;;6212602;23;20011;-72
2023/12/07 03:28:21;;;;;;;26.33;16.23;;;1.50;99.90;;;;;;6185510;23;20009;-72
2023/12/07 03:30:49;;;;;;;23.23;17.10;;;1.50;99.90;;;;;;6212808;23;20012;-72
2023/12/07 03:33:15;;;;;;;21.40;15.50;;;1.50;99.90;;;;;;6212699;23;20008;-72
2023/12/07 03:35:40;;;;;;;28.70;17.47;;;1.50;99.90;;;;;;6212802;23;20338;-72
2023/12/07 03:38:06;;;;;;;19.33;13.83;;;1.50;99.90;;;;;;6212277;23;20336;-72
2023/12/07 03:40:32;;;;;;;24.53;17.57;;;1.50;99.90;;;;;;6212188;23;20008;-72
2023/12/07 03:42:57;;;;;;;21.77;15.20;;;1.50;99.90;;;;;;6212792;23;20510;-72
2023/12/07 03:45:23;;;;;;;25.00;17.63;;;1.50;99.90;;;;;;6212462;23;20028;-72
2023/12/07 03:47:49;;;;;;;18.73;14.30;;;1.50;99.90;;;;;;6212734;23;20008;-71
2023/12/07 03:50:15;;;;;;;20.30;14.00;;;1.50;99.90;;;;;;6212743;23;20001;-71
2023/12/07 03:52:41;;;;;;;21.60;15.20;;;1.40;99.90;;;;;;6212452;23;20083;-71
2023/12/07 03:55:07;;;;;;;20.20;14.87;;;1.40;99.90;;;;;;6212429;23;20004;-72
2023/12/07 03:57:32;;;;;;;23.50;16.57;;;1.30;99.90;;;;;;6212561;23;20005;-72
2023/12/07 03:59:58;;;;;;;31.80;17.97;;;1.30;99.90;;;;;;6212941;23;19997;-72
2023/12/07 04:02:23;;;;;;;28.73;17.27;;;1.30;99.90;;;;;;6211952;23;20005;-72
2023/12/07 04:04:49;;;;;;;17.87;14.13;;;1.30;99.90;;;;;;6212577;23;19996;-71
2023/12/07 04:07:15;;;;;;;18.10;15.47;;;1.20;99.90;;;;;;6214932;23;20005;-71
2023/12/07 04:09:40;;;;;;;20.20;14.30;;;1.20;99.90;;;;;;6185586;23;20063;-71
2023/12/07 04:12:06;;;;;;;25.33;18.27;;;1.20;99.90;;;;;;6212100;23;20000;-71
2023/12/07 04:14:32;;;;;;;17.13;13.87;;;1.10;99.90;;;;;;6212648;23;20004;-71
2023/12/07 04:16:57;;;;;;;20.83;15.87;;;1.10;99.90;;;;;;6212439;23;20457;-71
2023/12/07 04:19:23;;;;;;;21.13;16.23;;;1.10;99.90;;;;;;6212129;23;20000;-71
2023/12/07 04:21:48;;;;;;;21.80;16.37;;;1.00;99.90;;;;;;6212596;23;20414;-71
2023/12/07 04:24:14;;;;;;;19.67;15.23;;;1.00;99.90;;;;;;6212474;23;20079;-71
2023/12/07 04:26:39;;;;;;;22.23;15.33;;;1.00;99.90;;;;;;6212527;23;20012;-72
2023/12/07 04:29:05;;;;;;;25.80;17.07;;;1.00;99.90;;;;;;6212273;23;20009;-72
2023/12/07 04:31:30;;;;;;;18.07;13.77;;;1.10;99.90;;;;;;6212784;23;20000;-72
2023/12/07 04:33:56;;;;;;;24.33;15.73;;;1.10;99.90;;;;;;6212766;23;20339;-72
2023/12/07 04:36:24;;;;;;;18.77;14.57;;;1.20;99.90;;;;;;6212159;23;20055;-72
2023/12/07 04:38:50;;;;;;;26.20;18.10;;;1.20;99.90;;;;;;6214401;23;20423;-72
2023/12/07 04:41:15;;;;;;;30.53;18.03;;;1.30;99.90;;;;;;6214224;23;20005;-72
2023/12/07 04:43:41;;;;;;;29.43;19.77;;;1.30;99.90;;;;;;6214624;23;20005;-71
2023/12/07 04:46:06;;;;;;;48.53;22.20;;;1.40;99.90;;;;;;6213863;23;20005;-71
2023/12/07 04:48:32;;;;;;;67.03;25.53;;;1.40;99.90;;;;;;6214600;23;19997;-71
2023/12/07 04:50:58;;;;;;;128.37;29.77;;;1.50;99.90;;;;;;6214197;23;20008;-71
2023/12/07 04:53:24;;;;;;;110.90;27.73;;;1.50;99.90;;;;;;6213696;23;20005;-71
2023/12/07 04:55:50;;;;;;;117.67;28.60;;;1.50;99.90;;;;;;6214013;23;20004;-71
2023/12/07 04:58:15;;;;;;;69.33;25.87;;;1.60;99.90;;;;;;6214609;23;20438;-71
2023/12/07 05:00:41;;;;;;;105.53;26.87;;;1.60;99.90;;;;;;6214107;23;20009;-71
2023/12/07 05:03:06;;;;;;;65.50;25.47;;;1.60;99.90;;;;;;6213656;23;20054;-71
2023/12/07 05:05:32;;;;;;;98.80;28.10;;;1.60;99.90;;;;;;6214115;23;20004;-71
2023/12/07 05:07:58;;;;;;;99.70;28.70;;;1.60;99.90;;;;;;6213872;23;20117;-71
2023/12/07 05:10:23;;;;;;;92.23;27.20;;;1.60;99.90;;;;;;6213704;23;20005;-71
2023/12/07 05:12:49;;;;;;;146.97;34.87;;;1.60;99.90;;;;;;6213751;23;20015;-71
2023/12/07 05:15:15;;;;;;;91.07;30.40;;;1.60;99.90;;;;;;6214237;23;20000;-71
2023/12/07 05:17:41;;;;;;;122.23;30.37;;;1.60;99.90;;;;;;6213548;23;20066;-71
2023/12/07 05:20:07;;;;;;;187.27;38.83;;;1.60;99.90;;;;;;6213732;23;20307;-71
2023/12/07 05:22:32;;;;;;;98.47;26.00;;;1.60;99.90;;;;;;6213737;23;20078;-71
2023/12/07 05:24:58;;;;;;;65.43;24.07;;;1.60;99.90;;;;;;6213735;23;20466;-71
2023/12/07 05:27:23;;;;;;;174.87;37.27;;;1.60;99.90;;;;;;6213269;23;20012;-71
2023/12/07 05:29:49;;;;;;;143.77;34.77;;;1.60;99.90;;;;;;6186990;23;20381;-71
2023/12/07 05:32:14;;;;;;;160.87;33.90;;;1.70;99.90;;;;;;6213938;23;20004;-71
2023/12/07 05:34:41;;;;;;;110.00;27.93;;;1.60;99.90;;;;;;6213613;23;20075;-71
2023/12/07 05:37:06;;;;;;;150.47;33.80;;;1.60;99.90;;;;;;6213221;23;20121;-71
2023/12/07 05:39:32;;;;;;;75.70;24.30;;;1.60;99.90;;;;;;6213513;23;20032;-71
2023/12/07 05:41:57;;;;;;;109.47;27.90;;;1.60;99.90;;;;;;6213749;23;20004;-71
2023/12/07 05:44:23;;;;;;;54.23;22.83;;;1.60;99.90;;;;;;6213397;23;20006;-71
2023/12/07 05:46:49;;;;;;;68.23;25.53;;;1.60;99.90;;;;;;6211893;23;20011;-71
2023/12/07 05:49:15;;;;;;;80.50;25.87;;;1.60;99.90;;;;;;6211273;23;19997;-72
2023/12/07 05:51:40;;;;;;;105.50;28.70;;;1.60;99.90;;;;;;6210827;23;20005;-72
2023/12/07 05:54:06;;;;;;;85.57;27.47;;;1.60;99.90;;;;;;6212692;23;20078;-72
2023/12/07 05:56:31;;;;;;;187.30;40.70;;;1.60;99.90;;;;;;6211943;23;20003;-72
2023/12/07 05:58:57;;;;;;;100.20;30.67;;;1.60;99.90;;;;;;6213139;23;20004;-71
2023/12/07 06:01:24;;;;;;;133.33;35.07;;;1.70;99.90;;;;;;6213095;23;20051;-71
2023/12/07 06:03:50;;;;;;;71.67;26.47;;;1.70;99.90;;;;;;6213362;23;19997;-71
2023/12/07 06:06:15;;;;;;;70.90;25.07;;;1.70;99.90;;;;;;6213671;23;19996;-71
2023/12/07 06:08:41;;;;;;;103.00;25.87;;;1.70;99.90;;;;;;6213052;23;20040;-71
2023/12/07 06:11:07;;;;;;;100.07;28.67;;;1.70;99.90;;;;;;6213396;23;20079;-71
2023/12/07 06:13:33;;;;;;;84.73;29.10;;;1.70;99.90;;;;;;6213313;23;20036;-72
2023/12/07 06:15:59;;;;;;;82.57;25.70;;;1.70;99.90;;;;;;6213464;23;20021;-71
2023/12/07 06:18:25;;;;;;;67.40;23.73;;;1.80;99.90;;;;;;6212767;23;20128;-71
2023/12/07 06:20:50;;;;;;;57.47;24.93;;;1.70;99.90;;;;;;6213245;23;19996;-71
2023/12/07 06:23:16;;;;;;;105.43;29.23;;;1.70;99.90;;;;;;6213096;23;20008;-71
2023/12/07 06:25:41;;;;;;;77.60;28.73;;;1.70;99.90;;;;;;6212761;23;20075;-71
2023/12/07 06:28:07;;;;;;;77.67;27.83;;;1.70;99.90;;;;;;6213075;23;20024;-71
2023/12/07 06:30:34;;;;;;;87.10;27.43;;;1.80;99.90;;;;;;6213407;23;20036;-71
2023/12/07 06:33:00;;;;;;;87.53;27.13;;;1.80;99.90;;;;;;6213277;23;20431;-71
2023/12/07 06:35:26;;;;;;;104.27;31.10;;;1.70;99.90;;;;;;6213225;23;20000;-71
2023/12/07 06:37:51;;;;;;;61.10;23.73;;;1.70;99.90;;;;;;6213304;23;20007;-71
2023/12/07 06:40:17;;;;;;;136.37;38.67;;;1.70;99.90;;;;;;6213093;23;19997;-71
2023/12/07 06:42:42;;;;;;;93.00;29.30;;;1.70;99.90;;;;;;6212820;23;20001;-73
2023/12/07 06:45:10;;;;;;;96.77;29.60;;;1.70;99.90;;;;;;6213052;23;20001;-72
2023/12/07 06:47:38;;;;;;;89.60;28.97;;;1.80;99.90;;;;;;6212490;23;20001;-72
2023/12/07 06:50:05;;;;;;;78.80;26.93;;;1.80;99.90;;;;;;6212951;23;20004;-72
2023/12/07 06:52:30;;;;;;;53.57;23.63;;;1.80;99.90;;;;;;6212423;23;20373;-72
2023/12/07 06:54:56;;;;;;;96.70;28.70;;;1.80;99.90;;;;;;6213049;23;20079;-72
2023/12/07 06:57:21;;;;;;;70.50;25.13;;;1.80;99.90;;;;;;6212366;23;20028;-72
2023/12/07 06:59:47;;;;;;;81.27;28.07;;;1.80;99.90;;;;;;6213013;23;20043;-72
2023/12/07 07:02:13;;;;;;;85.13;26.27;;;1.70;99.90;;;;;;6211405;23;19997;-72
2023/12/07 07:04:38;;;;;;;55.43;24.70;;;1.70;99.90;;;;;;6211637;23;20000;-72
2023/12/07 07:07:04;;;;;;;103.50;30.90;;;1.70;99.90;;;;;;6212124;23;20004;-72
2023/12/07 07:09:30;;;;;;;122.90;34.47;;;1.70;99.90;;;;;;6212883;23;19997;-72
2023/12/07 07:11:55;;;;;;;95.73;30.53;;;1.60;99.90;;;;;;6212833;23;20001;-71
2023/12/07 07:14:21;;;;;;;70.33;27.87;;;1.60;99.90;;;;;;6212510;23;20001;-71
2023/12/07 07:16:46;;;;;;;83.13;30.13;;;1.60;99.90;;;;;;6212469;23;20013;-71
2023/12/07 07:19:13;;;;;;;79.33;29.57;;;1.60;99.90;;;;;;6212763;23;20004;-71
2023/12/07 07:21:38;;;;;;;55.30;27.10;;;1.70;99.90;;;;;;6212758;23;20447;-71
2023/12/07 07:24:04;;;;;;;48.13;27.93;;;1.70;99.90;;;;;;6211702;23;20005;-71
2023/12/07 07:26:29;;;;;;;64.40;25.47;;;1.70;99.90;;;;;;6212490;23;20023;-71
2023/12/07 07:28:55;;;;;;;72.13;29.40;;;1.70;99.90;;;;;;6212702;23;20005;-71
2023/12/07 07:31:21;;;;;;;83.50;28.60;;;1.70;99.90;;;;;;6211642;23;20014;-71
2023/12/07 07:33:49;;;;;;;77.23;28.07;;;1.70;99.90;;;;;;6212984;23;20028;-71
2023/12/07 07:36:15;;;;;;;73.40;29.03;;;1.70;99.90;;;;;;6212123;23;20000;-71
2023/12/07 07:38:41;;;;;;;68.83;27.83;;;1.60;99.90;;;;;;6212559;23;20005;-71
2023/12/07 07:41:06;;;;;;;82.03;27.37;;;1.70;99.90;;;;;;6211983;23;20016;-72
2023/12/07 07:43:34;;;;;;;103.43;27.47;;;1.60;99.90;;;;;;6212835;23;20003;-72
2023/12/07 07:46:00;;;;;;;59.77;23.67;;;1.60;99.90;;;;;;6211925;23;20000;-72
2023/12/07 07:48:26;;;;;;;114.13;32.67;;;1.70;99.90;;;;;;6211803;23;20335;-72
2023/12/07 07:50:51;;;;;;;101.93;28.73;;;1.70;99.90;;;;;;6212468;23;20001;-72
2023/12/07 07:53:17;;;;;;;72.50;28.47;;;1.70;99.90;;;;;;6212502;23;20011;-73
2023/12/07 07:55:43;;;;;;;93.90;28.53;;;1.70;99.90;;;;;;6186613;23;20005;-72
2023/12/07 07:58:08;;;;;;;72.30;27.90;;;1.70;99.90;;;;;;6213814;23;20370;-73
2023/12/07 08:00:34;;;;;;;78.37;31.70;;;1.70;99.90;;;;;;6213657;23;20000;-73
2023/12/07 08:03:00;;;;;;;69.43;29.60;;;1.70;99.90;;;;;;6213774;23;20035;-73
2023/12/07 08:05:28;;;;;;;63.60;27.63;;;1.70;99.90;;;;;;6188006;23;20000;-73
2023/12/07 08:07:54;;;;;;;97.57;31.63;;;1.80;99.90;;;;;;6214268;23;20009;-74
2023/12/07 08:10:20;;;;;;;78.33;29.40;;;1.80;99.90;;;;;;6212500;23;20008;-73
2023/12/07 08:12:46;;;;;;;148.93;37.43;;;1.70;99.90;;;;;;6213832;23;20039;-73
2023/12/07 08:15:11;;;;;;;91.90;33.23;;;1.70;99.90;;;;;;6186596;23;20009;-73
2023/12/07 08:17:40;;;;;;;101.43;33.30;;;1.80;99.90;;;;;;6187205;23;20013;-73
2023/12/07 08:20:07;;;;;;;79.93;27.63;;;1.80;99.90;;;;;;6211185;23;20001;-73
2023/12/07 08:22:32;;;;;;;76.73;28.40;;;1.80;99.90;;;;;;6187373;23;20032;-73
2023/12/07 08:24:59;;;;;;;87.10;32.50;;;1.80;99.90;;;;;;6211645;23;20431;-73
2023/12/07 08:27:25;;;;;;;70.60;29.13;;;1.80;99.90;;;;;;6214223;23;20011;-73
2023/12/07 08:29:51;;;;;;;111.53;34.97;;;1.80;99.90;;;;;;6213404;23;20013;-73
2023/12/07 08:32:18;;;;;;;66.10;26.63;;;1.80;99.90;;;;;;6186915;23;20488;-73
2023/12/07 08:34:44;;;;;;;59.63;27.10;;;1.80;99.90;;;;;;6213568;23;20070;-73
2023/12/07 08:37:10;;;;;;;59.97;25.23;;;1.80;99.90;;;;;;6186978;23;20510;-74
2023/12/07 08:39:35;;;;;;;89.07;31.43;;;1.90;99.90;;;;;;6213669;23;20028;-73
2023/12/07 08:42:01;;;;;;;73.40;26.27;;;1.80;99.90;;;;;;6186821;23;20001;-74
2023/12/07 08:44:27;;;;;;;109.03;35.47;;;1.90;99.90;;;;;;6213181;23;19996;-73
2023/12/07 08:46:52;;;;;;;52.63;24.67;;;1.90;99.90;;;;;;6212138;23;20035;-73
2023/12/07 08:49:18;;;;;;;131.00;37.90;;;1.90;99.90;;;;;;6212123;23;20067;-72
2023/12/07 08:51:43;;;;;;;81.63;32.07;;;1.90;99.90;;;;;;6212095;23;20066;-75
2023/12/07 08:54:09;;;;;;;87.80;31.07;;;1.90;99.90;;;;;;6211424;23;20012;-75
2023/12/07 08:56:35;;;;;;;59.37;27.37;;;1.90;99.90;;;;;;6185482;23;20001;-77
2023/12/07 08:59:01;;;;;;;63.27;26.97;;;1.90;99.90;;;;;;6211274;23;20001;-76
2023/12/07 09:01:27;;;;;;;135.90;37.60;;;1.90;99.90;;;;;;6212181;23;20001;-75
2023/12/07 09:03:52;;;;;;;74.57;29.83;;;1.90;99.90;;;;;;6212018;23;20051;-74
2023/12/07 09:06:18;;;;;;;72.50;27.40;;;2.00;99.90;;;;;;6211386;23;20311;-73
2023/12/07 09:08:43;;;;;;;77.80;27.60;;;2.00;99.90;;;;;;6211649;23;20491;-73
2023/12/07 09:11:09;;;;;;;60.77;25.20;;;2.00;99.90;;;;;;6185162;23;20083;-73
2023/12/07 09:13:37;;;;;;;65.40;25.30;;;2.00;99.90;;;;;;6212026;23;20005;-73
2023/12/07 09:16:03;;;;;;;64.97;25.83;;;2.00;99.90;;;;;;6211543;23;20346;-73
2023/12/07 09:18:29;;;;;;;72.57;26.27;;;2.00;99.90;;;;;;6211648;23;20012;-73
2023/12/07 09:20:54;;;;;;;62.13;25.30;;;2.00;99.90;;;;;;6211447;23;19996;-73
2023/12/07 09:23:20;;;;;;;47.77;22.50;;;2.10;99.90;;;;;;6213113;23;20011;-73
2023/12/07 09:25:46;;;;;;;44.23;21.67;;;2.10;99.90;;;;;;6213279;23;20008;-73
2023/12/07 09:28:11;;;;;;;47.87;22.07;;;2.10;99.90;;;;;;6213907;23;20090;-75
2023/12/07 09:30:37;;;;;;;57.40;22.50;;;2.10;99.90;;;;;;6213393;23;20008;-75
2023/12/07 09:33:03;;;;;;;49.07;19.80;;;2.20;99.90;;;;;;6212660;23;20013;-75
2023/12/07 09:35:28;;;;;;;36.17;17.90;;;2.10;99.90;;;;;;6213342;23;20015;-76
2023/12/07 09:37:54;;;;;;;48.63;18.60;;;2.20;99.90;;;;;;6213422;23;20004;-76
2023/12/07 09:40:21;;;;;;;32.83;16.00;;;2.20;99.90;;;;;;6187145;23;20059;-72
2023/12/07 09:42:48;;;;;;;33.07;16.30;;;2.20;99.90;;;;;;6213357;23;20001;-73
2023/12/07 09:45:16;;;;;;;39.80;17.00;;;2.10;99.90;;;;;;6213779;23;20050;-73
2023/12/07 09:47:42;;;;;;;33.93;15.73;;;2.20;99.90;;;;;;6213719;23;20001;-73
2023/12/07 09:50:08;;;;;;;30.30;15.83;;;2.20;99.90;;;;;;6213360;23;20031;-73
2023/12/07 09:52:35;;;;;;;42.10;17.10;;;2.20;99.90;;;;;;6213261;23;20051;-72
2023/12/07 09:55:03;;;;;;;34.20;15.37;;;2.20;99.90;;;;;;6212825;23;20039;-73
2023/12/07 09:57:28;;;;;;;25.90;14.87;;;2.20;99.90;;;;;;6211904;23;20394;-73
2023/12/07 09:59:55;;;;;;;32.00;15.97;;;2.20;99.90;;;;;;6213395;23;20000;-73
2023/12/07 10:02:21;;;;;;;20.67;13.50;;;2.20;99.90;;;;;;6212974;23;20155;-73
2023/12/07 10:04:47;;;;;;;28.10;14.60;;;2.30;99.90;;;;;;6186618;23;20091;-73
2023/12/07 10:07:13;;;;;;;33.90;15.63;;;2.30;99.90;;;;;;6213524;23;20020;-73
2023/12/07 10:09:40;;;;;;;26.00;14.70;;;2.30;99.90;;;;;;6213480;23;20055;-73
2023/12/07 10:12:06;;;;;;;27.13;15.57;;;2.30;99.90;;;;;;6213397;23;20009;-73
2023/12/07 10:14:33;;;;;;;27.97;14.97;;;2.30;99.90;;;;;;6213472;23;20000;-73
2023/12/07 10:17:00;;;;;;;30.40;14.93;;;2.30;99.90;;;;;;6212970;23;20075;-73
2023/12/07 10:19:27;;;;;;;35.90;17.07;;;2.40;99.90;;;;;;6213563;23;20050;-74
2023/12/07 10:21:53;;;;;;;34.47;15.40;;;2.40;99.90;;;;;;6213514;23;19996;-74
2023/12/07 10:24:24;;;;;;;31.27;14.50;;;2.40;99.90;;;;;;6186903;23;19997;-74
2023/12/07 10:26:52;;;;;;;34.07;15.73;;;2.40;99.90;;;;;;6213307;23;19997;-73
2023/12/07 10:29:19;;;;;;;28.57;13.53;;;2.40;99.90;;;;;;6213378;23;20005;-73
2023/12/07 10:31:46;;;;;;;28.30;14.17;;;2.50;99.90;;;;;;6212672;23;20000;-73
2023/12/07 10:34:12;;;;;;;33.00;15.83;;;2.50;99.90;;;;;;6212713;23;20004;-74
2023/12/07 10:36:37;;;;;;;34.50;16.13;;;2.50;99.90;;;;;;6186220;23;20001;-74
2023/12/07 10:39:06;;;;;;;31.63;15.00;;;2.50;99.90;;;;;;6212490;23;20083;-73
2023/12/07 10:41:35;;;;;;;32.17;15.90;;;2.50;99.90;;;;;;6212614;23;19997;-73
2023/12/07 10:44:02;;;;;;;39.70;16.67;;;2.60;99.90;;;;;;6212740;23;20008;-73
2023/12/07 10:46:32;;;;;;;36.13;17.57;;;2.60;99.90;;;;;;6213461;23;20004;-74
2023/12/07 10:49:03;;;;;;;44.70;18.67;;;2.60;99.90;;;;;;6213261;23;20016;-74
2023/12/07 10:51:38;;;;;;;36.83;17.37;;;2.60;99.90;;;;;;6212370;23;20011;-74
2023/12/07 10:54:07;;;;;;;51.00;19.60;;;2.70;99.90;;;;;;6212110;23;20437;-74
2023/12/07 10:56:42;;;;;;;51.93;21.23;;;2.70;99.90;;;;;;6213176;23;20012;-74
2023/12/07 10:59:13;;;;;;;41.03;17.93;;;2.80;99.90;;;;;;6212365;23;20008;-74
2023/12/07 11:01:39;;;;;;;50.90;20.40;;;2.80;99.90;;;;;;6212770;23;20381;-74
2023/12/07 11:04:06;;;;;;;54.73;21.60;;;2.80;99.90;;;;;;6212632;23;20087;-74
2023/12/07 11:06:32;;;;;;;48.23;20.27;;;2.80;99.90;;;;;;6184769;23;20075;-73
2023/12/07 11:09:01;;;;;;;55.80;21.90;;;2.80;99.90;;;;;;6212406;23;20013;-76
2023/12/07 11:11:39;;;;;;;49.67;20.87;;;2.90;99.90;;;;;;6211997;23;20005;-75
2023/12/07 11:14:06;;;;;;;48.70;22.20;;;3.00;99.90;;;;;;6212068;23;20012;-75
2023/12/07 11:16:35;;;;;;;46.27;20.37;;;3.00;99.90;;;;;;6186070;23;20070;-74
2023/12/07 11:19:01;;;;;;;59.30;25.53;;;3.00;99.90;;;;;;6212624;23;20083;-74
2023/12/07 11:21:27;;;;;;;51.53;22.40;;;3.10;99.90;;;;;;6184889;23;20131;-75
2023/12/07 11:23:59;;;;;;;55.90;23.70;;;3.20;99.90;;;;;;6212678;23;20007;-75
2023/12/07 11:40:43;;;;;;;45.00;22.70;;;3.50;99.90;;;;;;6214428;23;20051;-78
2023/12/07 11:43:18;;;;;;;;;;;3.50;99.90;;;;;;6185520;23;20004;-79
2023/12/07 11:45:48;;;;;;;52.20;23.40;;;3.50;99.90;;;;;;6186464;23;20330;-79
2023/12/07 11:48:15;;;;;;;57.07;24.43;;;3.50;99.90;;;;;;6184101;23;20103;-74
2023/12/07 11:50:58;;;;;;;51.67;24.23;;;3.60;99.90;;;;;;6211601;23;20008;-73
2023/12/07 11:53:30;;;;;;;51.63;24.87;;;3.70;99.90;;;;;;6212763;23;20063;-73
2023/12/07 11:55:57;;;;;;;52.93;25.10;;;3.70;99.90;;;;;;6211432;23;20430;-73
2023/12/07 11:58:24;;;;;;;48.77;25.90;;;3.80;99.90;;;;;;6211330;23;20019;-73
2023/12/07 12:00:52;;;;;;;48.47;25.40;;;3.90;99.90;;;;;;6212396;23;20075;-74
2023/12/07 12:03:18;;;;;;;48.33;23.87;;;3.90;99.90;;;;;;6185117;23;20001;-74
2023/12/07 12:05:43;;;;;;;50.50;26.10;;;3.90;99.90;;;;;;6212461;23;20011;-73
2023/12/07 12:08:10;;;;;;;52.57;26.77;;;3.90;99.90;;;;;;6211887;23;20004;-73
2023/12/07 12:10:36;;;;;;;53.80;27.53;;;3.90;99.90;;;;;;6186019;23;19996;-73
2023/12/07 12:13:05;;;;;;;47.50;25.50;;;3.90;99.90;;;;;;6184923;23;20015;-74
2023/12/07 12:15:31;;;;;;;51.13;25.30;;;3.90;99.90;;;;;;6212766;23;20437;-73
2023/12/07 12:17:57;;;;;;;55.07;28.20;;;3.90;99.90;;;;;;6211756;23;20013;-73
2023/12/07 12:20:24;;;;;;;52.70;26.97;;;3.90;99.90;;;;;;6212305;23;20001;-73
2023/12/07 12:22:50;;;;;;;56.93;28.60;;;3.90;99.90;;;;;;6185064;23;20319;-73
2023/12/07 12:25:16;;;;;;;54.47;27.00;;;4.00;99.90;;;;;;6210890;23;20008;-73
2023/12/07 12:27:44;;;;;;;59.07;29.37;;;4.00;99.90;;;;;;6212041;23;20092;-73
2023/12/07 12:30:11;;;;;;;48.30;24.73;;;4.00;99.90;;;;;;6212781;23;20005;-73
2023/12/07 12:32:44;;;;;;;48.57;26.20;;;4.10;99.90;;;;;;6213361;23;20031;-73
2023/12/07 12:35:11;;;;;;;46.97;26.70;;;4.10;99.90;;;;;;6213303;23;20051;-73
2023/12/07 12:37:38;;;;;;;45.63;27.70;;;4.00;99.90;;;;;;6213075;23;20338;-73
2023/12/07 12:40:07;;;;;;;62.90;27.27;;;4.00;99.90;;;;;;6212841;23;19996;-73
2023/12/07 12:42:33;;;;;;;48.17;25.47;;;4.00;99.90;;;;;;6186605;23;20005;-73
2023/12/07 12:44:59;;;;;;;48.33;26.20;;;4.00;99.90;;;;;;6213138;23;20465;-72